Terminal Aerodrome Forecast
Issued by NWS

Home | Current Version | Previous Version | Text Only | Print | Product List | Glossary On
Versions: 1 2 3 4 5 6 7 8 9 10 11 12 13 14 15 16 17
475
FTUS43 KBIS 260526
TAFJMS
TAF
KJMS 260526Z 2606/2706 16004KT P6SM SCT100
     FM261100 23004KT P6SM SCT080 SCT120
     FM261500 04004KT P6SM BKN120
     FM270200 05008KT P6SM BKN050 BKN080=

USA.gov is the U.S. government's official web portal to all federal, state and local government web resources and services.